Time;durP1;ratioP1;P1;durP2;ratioP2;P2;SDS_P1;SDS_P2;PMS_P1;PMS_P2;Temp;Humidity;BMP_temperature;BMP_pressure;BME280_temperature;BME280_humidity;BME280_pressure;Samples;Min_cycle;Max_cycle;Signal;HPM_P1;HPM_P2
2022/05/03 00:00:42;;;;;;;;;;;21.20;43.30;;;;;;5150934;27;20354;-57
2022/05/03 00:03:09;;;;;;;;;;;21.30;43.20;;;;;;5145757;27;19923;-57
2022/05/03 00:05:38;;;;;;;;;;;21.30;43.20;;;;;;5145697;27;20049;-55
2022/05/03 00:08:09;;;;;;;;;;;21.30;43.30;;;;;;5166854;27;20188;-56
2022/05/03 00:10:35;;;;;;;;;;;21.30;43.30;;;;;;5143973;27;19933;-59
2022/05/03 00:13:02;;;;;;;;;;;21.30;43.30;;;;;;5167610;27;20375;-57
2022/05/03 00:15:28;;;;;;;;;;;21.30;43.20;;;;;;5166440;27;20400;-58
2022/05/03 00:17:54;;;;;;;;;;;21.30;43.30;;;;;;5163794;27;20017;-57
2022/05/03 00:20:20;;;;;;;;;;;21.20;43.50;;;;;;5169513;27;19958;-57
2022/05/03 00:22:46;;;;;;;;;;;21.30;43.40;;;;;;5163721;27;19927;-55
2022/05/03 00:25:11;;;;;;;;;;;21.20;43.50;;;;;;5163078;27;20524;-57
2022/05/03 00:27:37;;;;;;;;;;;21.20;43.50;;;;;;5147426;27;20021;-57
2022/05/03 00:30:03;;;;;;;;;;;21.30;43.40;;;;;;5144741;27;20396;-57
2022/05/03 00:32:29;;;;;;;;;;;21.30;43.40;;;;;;5164455;27;19922;-58
2022/05/03 00:34:56;;;;;;;;;;;21.30;43.40;;;;;;5148107;27;20329;-56
2022/05/03 00:37:21;;;;;;;;;;;21.30;43.50;;;;;;5163635;27;19923;-58
2022/05/03 00:39:47;;;;;;;;;;;21.20;43.50;;;;;;5169069;27;20339;-57
2022/05/03 00:42:19;;;;;;;;;;;21.20;43.80;;;;;;5163534;27;19922;-57
2022/05/03 00:45:00;;;;;;;;;;;21.30;43.90;;;;;;5160741;27;20923;-58
2022/05/03 00:47:43;;;;;;;;;;;21.20;43.90;;;;;;5167516;27;19967;-56
2022/05/03 00:50:11;;;;;;;;;;;21.30;43.70;;;;;;5163035;27;19933;-57
2022/05/03 00:52:41;;;;;;;;;;;21.20;43.40;;;;;;5163146;27;19923;-54
2022/05/03 00:55:20;;;;;;;;;;;21.20;43.30;;;;;;5168974;27;19929;-55
2022/05/03 00:58:04;;;;;;;;;;;21.30;43.20;;;;;;5163218;27;20044;-59
2022/05/03 01:00:30;;;;;;;;;;;21.30;43.10;;;;;;5163484;27;19974;-58
2022/05/03 01:03:15;;;;;;;;;;;21.20;43.30;;;;;;5145377;27;19931;-55
2022/05/03 01:05:44;;;;;;;;;;;21.20;43.20;;;;;;5161750;27;20421;-57
2022/05/03 01:08:12;;;;;;;;;;;21.30;43.10;;;;;;5144164;27;20017;-58
2022/05/03 01:10:52;;;;;;;;;;;21.30;43.10;;;;;;5168409;27;19934;-57
2022/05/03 01:13:33;;;;;;;;;;;21.30;43.00;;;;;;5163098;27;19968;-56
2022/05/03 01:16:03;;;;;;;;;;;21.30;43.10;;;;;;5163105;27;20051;-55
2022/05/03 01:18:42;;;;;;;;;;;21.10;43.40;;;;;;5168529;27;20248;-56
2022/05/03 01:21:19;;;;;;;;;;;21.10;43.40;;;;;;5160545;27;19931;-58
2022/05/03 01:23:50;;;;;;;;;;;21.20;43.10;;;;;;5140565;27;20548;-57
2022/05/03 01:26:33;;;;;;;;;;;21.20;43.20;;;;;;5167784;27;20017;-57
2022/05/03 01:29:08;;;;;;;;;;;21.30;43.00;;;;;;5164087;27;19974;-56
2022/05/03 01:31:34;;;;;;;;;;;21.20;43.20;;;;;;5163109;27;20021;-58
2022/05/03 01:34:01;;;;;;;;;;;21.20;43.20;;;;;;5168642;27;19923;-57
2022/05/03 01:36:28;;;;;;;;;;;21.20;43.20;;;;;;5162951;27;19944;-56
2022/05/03 01:39:12;;;;;;;;;;;21.20;43.30;;;;;;5143006;27;20441;-53
2022/05/03 01:41:38;;;;;;;;;;;21.10;43.30;;;;;;5165796;27;19922;-57
2022/05/03 01:44:06;;;;;;;;;;;21.30;43.20;;;;;;5162280;27;19971;-58
2022/05/03 01:46:35;;;;;;;;;;;21.30;43.20;;;;;;5143952;27;19923;-58
2022/05/03 01:51:57;;;;;;;;;;;21.20;43.50;;;;;;5159027;27;20018;-50
2022/05/03 01:54:44;;;;;;;;;;;21.20;43.60;;;;;;5142687;27;19929;-57
2022/05/03 01:57:22;;;;;;;;;;;21.20;43.60;;;;;;5166558;27;20022;-58
2022/05/03 01:59:54;;;;;;;;;;;21.10;43.80;;;;;;5141531;27;20017;-59
2022/05/03 02:02:23;;;;;;;;;;;21.10;43.80;;;;;;5161901;27;19929;-50
2022/05/03 02:04:55;;;;;;;;;;;21.10;43.80;;;;;;5167679;27;19926;-55
2022/05/03 02:07:28;;;;;;;;;;;21.10;43.70;;;;;;5162406;27;20374;-57
2022/05/03 02:10:02;;;;;;;;;;;21.20;43.30;;;;;;5144069;27;19927;-52
2022/05/03 02:12:28;;;;;;;;;;;21.10;43.30;;;;;;5167803;27;19970;-58
2022/05/03 02:14:55;;;;;;;;;;;21.20;43.00;;;;;;5162233;27;19933;-46
2022/05/03 02:17:24;;;;;;;;;;;21.10;43.20;;;;;;5158498;27;20417;-53
2022/05/03 02:20:09;;;;;;;;;;;21.20;42.90;;;;;;5166845;27;19923;-53
2022/05/03 02:22:48;;;;;;;;;;;21.10;42.90;;;;;;5161895;27;20386;-57
2022/05/03 02:25:20;;;;;;;;;;;21.10;42.70;;;;;;5142838;27;19930;-51
2022/05/03 02:27:48;;;;;;;;;;;21.20;42.80;;;;;;5167655;27;20429;-57
2022/05/03 02:30:15;;;;;;;;;;;21.30;42.60;;;;;;5162118;27;19923;-53
2022/05/03 02:32:47;;;;;;;;;;;21.10;42.90;;;;;;5162011;27;20183;-57
2022/05/03 02:35:13;;;;;;;;;;;21.20;42.90;;;;;;5144543;27;19923;-56
2022/05/03 02:37:49;;;;;;;;;;;21.20;43.00;;;;;;5141883;27;19926;-57
2022/05/03 02:40:15;;;;;;;;;;;21.20;42.80;;;;;;5162628;27;20902;-56
2022/05/03 02:42:41;;;;;;;;;;;21.10;43.10;;;;;;5171095;27;20293;-58
2022/05/03 02:45:07;;;;;;;;;;;21.20;42.90;;;;;;5165885;27;19922;-52
2022/05/03 02:47:42;;;;;;;;;;;21.10;43.10;;;;;;5171260;27;20370;-58
2022/05/03 02:50:14;;;;;;;;;;;21.20;42.70;;;;;;5165771;27;20038;-59
2022/05/03 02:52:42;;;;;;;;;;;21.20;42.80;;;;;;5163785;27;19971;-52
2022/05/03 02:55:13;;;;;;;;;;;21.10;42.90;;;;;;5168821;27;19923;-54
2022/05/03 02:57:38;;;;;;;;;;;21.20;42.70;;;;;;5165148;27;20316;-56
2022/05/03 03:02:58;;;;;;;;;;;21.30;42.50;;;;;;5170814;27;19951;-57
2022/05/03 03:05:25;;;;;;;;;;;21.20;42.60;;;;;;5165513;27;20349;-56
2022/05/03 03:07:53;;;;;;;;;;;21.20;42.60;;;;;;5146994;27;19926;-56
2022/05/03 03:10:23;;;;;;;;;;;21.20;42.60;;;;;;5151873;27;19930;-58
2022/05/03 03:13:07;;;;;;;;;;;21.20;42.70;;;;;;5161912;27;19926;-52
2022/05/03 03:15:34;;;;;;;;;;;21.10;42.80;;;;;;5164676;27;20033;-56
2022/05/03 03:18:00;;;;;;;;;;;21.30;42.70;;;;;;5151705;27;19986;-57
2022/05/03 03:20:26;;;;;;;;;;;21.30;42.70;;;;;;5165059;27;19923;-51
2022/05/03 03:22:52;;;;;;;;;;;21.20;42.90;;;;;;5164957;27;19923;-57
2022/05/03 03:25:19;;;;;;;;;;;21.30;42.50;;;;;;5170621;27;19926;-58
2022/05/03 03:27:47;;;;;;;;;;;21.00;43.20;;;;;;5165190;27;19934;-57
2022/05/03 03:30:13;;;;;;;;;;;21.30;42.30;;;;;;5167408;27;19923;-58
2022/05/03 03:32:49;;;;;;;;;;;21.00;42.70;;;;;;5144492;27;19985;-58
2022/05/03 03:35:15;;;;;;;;;;;21.30;42.00;;;;;;5164405;27;20461;-48
2022/05/03 03:37:42;;;;;;;;;;;20.90;42.30;;;;;;5170130;27;19927;-54
2022/05/03 03:40:08;;;;;;;;;;;21.30;41.80;;;;;;5164924;27;20288;-57
2022/05/03 03:42:33;;;;;;;;;;;21.30;41.70;;;;;;5164796;27;20025;-54
2022/05/03 03:45:02;;;;;;;;;;;21.20;41.90;;;;;;5170175;27;19923;-55
2022/05/03 03:47:29;;;;;;;;;;;21.30;41.70;;;;;;5163131;27;20330;-58
2022/05/03 03:49:56;;;;;;;;;;;21.20;41.80;;;;;;5162230;27;19936;-53
2022/05/03 03:52:23;;;;;;;;;;;21.20;42.00;;;;;;5168814;27;19927;-58
2022/05/03 03:54:49;;;;;;;;;;;21.20;41.90;;;;;;5164263;27;20290;-54
2022/05/03 03:57:15;;;;;;;;;;;21.10;42.10;;;;;;5169963;27;19930;-57
2022/05/03 03:59:40;;;;;;;;;;;21.30;41.80;;;;;;5164636;27;19968;-59
2022/05/03 04:02:06;;;;;;;;;;;21.30;42.00;;;;;;5164642;27;19962;-56
2022/05/03 04:04:34;;;;;;;;;;;21.10;42.30;;;;;;5170004;27;19933;-49
2022/05/03 04:07:00;;;;;;;;;;;21.10;42.30;;;;;;5161629;27;20395;-58
2022/05/03 04:09:27;;;;;;;;;;;21.20;42.10;;;;;;5162625;27;20217;-48
2022/05/03 04:11:53;;;;;;;;;;;21.10;42.40;;;;;;5169153;27;20017;-55
2022/05/03 04:14:19;;;;;;;;;;;21.20;42.30;;;;;;5164334;27;19929;-54
2022/05/03 04:16:45;;;;;;;;;;;21.30;42.00;;;;;;5169606;27;20017;-54
2022/05/03 04:19:11;;;;;;;;;;;21.10;42.30;;;;;;5164262;27;20019;-54
2022/05/03 04:21:37;;;;;;;;;;;21.20;42.10;;;;;;5163962;27;20329;-54
2022/05/03 04:24:03;;;;;;;;;;;21.30;42.00;;;;;;5168417;27;19958;-56
2022/05/03 04:26:29;;;;;;;;;;;21.00;42.40;;;;;;5160573;27;19923;-57
2022/05/03 04:28:55;;;;;;;;;;;21.30;42.00;;;;;;5163292;27;20314;-55
2022/05/03 04:31:23;;;;;;;;;;;21.00;42.30;;;;;;5169365;27;19922;-52
2022/05/03 04:33:49;;;;;;;;;;;21.30;42.00;;;;;;5163938;27;20323;-59
2022/05/03 04:36:15;;;;;;;;;;;21.20;41.90;;;;;;5167407;27;19926;-56
2022/05/03 04:38:40;;;;;;;;;;;21.20;42.00;;;;;;5166188;27;19930;-57
2022/05/03 04:41:06;;;;;;;;;;;21.20;41.90;;;;;;5163730;27;20378;-54
2022/05/03 04:43:32;;;;;;;;;;;21.20;42.20;;;;;;5166234;27;20301;-58
2022/05/03 04:45:58;;;;;;;;;;;21.30;41.80;;;;;;5161939;27;20070;-58
2022/05/03 04:48:24;;;;;;;;;;;21.10;42.50;;;;;;5163065;27;19987;-55
2022/05/03 04:50:50;;;;;;;;;;;21.30;42.10;;;;;;5168975;27;20374;-56
2022/05/03 04:53:16;;;;;;;;;;;21.00;42.50;;;;;;5144786;27;19923;-58
2022/05/03 04:55:42;;;;;;;;;;;21.30;41.80;;;;;;5164525;27;19929;-50
2022/05/03 04:58:08;;;;;;;;;;;21.10;42.10;;;;;;5168308;27;20021;-58
2022/05/03 05:00:34;;;;;;;;;;;21.30;41.70;;;;;;5162832;27;19962;-53
2022/05/03 05:02:59;;;;;;;;;;;21.10;41.70;;;;;;5164241;27;19944;-54
2022/05/03 05:05:25;;;;;;;;;;;21.30;41.60;;;;;;5162624;27;19939;-51
2022/05/03 05:07:51;;;;;;;;;;;21.10;41.70;;;;;;5127432;27;19923;-55
2022/05/03 05:10:23;;;;;;;;;;;21.20;41.60;;;;;;5168643;27;20026;-54
2022/05/03 05:12:49;;;;;;;;;;;21.00;41.90;;;;;;5163234;27;20391;-52
2022/05/03 05:15:15;;;;;;;;;;;21.20;41.60;;;;;;5163327;27;20384;-58
2022/05/03 05:17:41;;;;;;;;;;;21.30;41.50;;;;;;5168835;27;19934;-52
2022/05/03 05:20:07;;;;;;;;;;;21.10;42.00;;;;;;5160519;27;19922;-58
2022/05/03 05:22:32;;;;;;;;;;;21.30;41.80;;;;;;5166343;27;20290;-53
2022/05/03 05:24:58;;;;;;;;;;;21.10;42.10;;;;;;5162927;27;19923;-52
2022/05/03 05:27:24;;;;;;;;;;;21.20;42.20;;;;;;5162782;27;19927;-58
2022/05/03 05:29:50;;;;;;;;;;;21.30;42.20;;;;;;5168322;27;19930;-54
2022/05/03 05:32:16;;;;;;;;;;;21.20;42.40;;;;;;5162874;27;19947;-59
2022/05/03 05:34:41;;;;;;;;;;;21.20;42.50;;;;;;5163057;27;19943;-53
2022/05/03 05:37:07;;;;;;;;;;;21.20;42.60;;;;;;5168160;27;20026;-57
2022/05/03 05:39:33;;;;;;;;;;;21.30;42.50;;;;;;5159020;27;19931;-53
2022/05/03 05:41:59;;;;;;;;;;;21.00;43.10;;;;;;5166879;27;19999;-54
2022/05/03 05:44:25;;;;;;;;;;;21.20;42.90;;;;;;5162898;27;19923;-56
2022/05/03 05:46:52;;;;;;;;;;;21.30;42.70;;;;;;5162506;27;19922;-58
2022/05/03 05:49:18;;;;;;;;;;;21.30;42.80;;;;;;5167981;27;20296;-54
2022/05/03 05:51:45;;;;;;;;;;;21.10;43.20;;;;;;5162722;27;20013;-58
2022/05/03 05:54:11;;;;;;;;;;;21.20;43.30;;;;;;5162811;27;19930;-54
2022/05/03 05:56:37;;;;;;;;;;;21.20;43.20;;;;;;5165721;27;19926;-58
2022/05/03 05:59:03;;;;;;;;;;;21.30;43.10;;;;;;5160338;27;19923;-55
2022/05/03 06:01:41;;;;;;;;;;;21.10;43.40;;;;;;5145066;27;19922;-59
2022/05/03 06:04:06;;;;;;;;;;;21.20;43.30;;;;;;5167552;27;19927;-57
2022/05/03 06:06:32;;;;;;;;;;;21.30;43.20;;;;;;5162446;27;19931;-53
2022/05/03 06:08:59;;;;;;;;;;;21.10;43.60;;;;;;5168024;27;19929;-57
2022/05/03 06:11:24;;;;;;;;;;;21.20;43.40;;;;;;5162475;27;20279;-53
2022/05/03 06:13:50;;;;;;;;;;;21.20;43.60;;;;;;5161986;27;20018;-57
2022/05/03 06:16:16;;;;;;;;;;;21.20;43.60;;;;;;5164180;27;19927;-55
2022/05/03 06:18:42;;;;;;;;;;;21.10;44.00;;;;;;5161250;27;20385;-55
2022/05/03 06:21:07;;;;;;;;;;;21.30;43.50;;;;;;5161734;27;19952;-56
2022/05/03 06:23:34;;;;;;;;;;;21.30;43.50;;;;;;5167372;27;19926;-58
2022/05/03 06:25:59;;;;;;;;;;;21.30;43.50;;;;;;5162266;27;19923;-58
2022/05/03 06:28:25;;;;;;;;;;;21.20;43.60;;;;;;5148797;27;20059;-56
2022/05/03 06:30:51;;;;;;;;;;;21.30;43.70;;;;;;5162503;27;19931;-58
2022/05/03 06:33:17;;;;;;;;;;;21.20;43.60;;;;;;5159902;27;19966;-58
2022/05/03 06:35:43;;;;;;;;;;;21.30;43.50;;;;;;5165188;27;20279;-59
2022/05/03 06:38:08;;;;;;;;;;;21.10;43.70;;;;;;5161406;27;19931;-56
2022/05/03 06:40:34;;;;;;;;;;;21.30;43.40;;;;;;5161639;27;20304;-58
2022/05/03 06:43:00;;;;;;;;;;;21.30;43.30;;;;;;5167331;27;19923;-58
2022/05/03 06:45:26;;;;;;;;;;;21.30;43.40;;;;;;5162014;27;20422;-58
2022/05/03 06:47:52;;;;;;;;;;;21.30;43.50;;;;;;5165462;27;19923;-58
2022/05/03 06:50:17;;;;;;;;;;;21.30;43.50;;;;;;5164347;27;19930;-58
2022/05/03 06:52:43;;;;;;;;;;;21.30;43.60;;;;;;5158313;27;19929;-57
2022/05/03 06:55:11;;;;;;;;;;;21.30;43.70;;;;;;5166057;27;19979;-59
2022/05/03 06:57:36;;;;;;;;;;;21.30;43.80;;;;;;5161519;27;20361;-57
2022/05/03 07:00:05;;;;;;;;;;;21.30;43.80;;;;;;5161822;27;19931;-58
2022/05/03 07:02:34;;;;;;;;;;;21.30;43.90;;;;;;5167115;27;19923;-59
2022/05/03 07:05:00;;;;;;;;;;;21.30;43.90;;;;;;5161600;27;20019;-60
2022/05/03 07:07:29;;;;;;;;;;;21.30;44.10;;;;;;5161730;27;19945;-59
2022/05/03 07:09:55;;;;;;;;;;;21.30;43.90;;;;;;5165096;27;19957;-58
2022/05/03 07:12:21;;;;;;;;;;;21.30;43.80;;;;;;5159040;27;20017;-59
2022/05/03 07:14:46;;;;;;;;;;;21.40;43.80;;;;;;5166398;27;20651;-59
2022/05/03 07:22:45;;;;;;;;;;;21.40;43.80;;;;;;5161277;27;19930;-58
2022/05/03 07:22:46;;;;;;;;;;;21.50;43.80;;;;;;5164473;27;20316;-59
2022/05/03 07:25:12;;;;;;;;;;;21.50;43.90;;;;;;5165422;27;20152;-58
2022/05/03 07:27:37;;;;;;;;;;;21.60;43.90;;;;;;5163614;27;20013;-59
2022/05/03 07:30:03;;;;;;;;;;;21.50;43.50;;;;;;5166867;27;19923;-58
2022/05/03 07:32:29;;;;;;;;;;;21.50;43.50;;;;;;5163975;27;20354;-56
2022/05/03 07:34:55;;;;;;;;;;;21.60;43.40;;;;;;5164553;27;19938;-59
2022/05/03 07:37:21;;;;;;;;;;;21.60;43.50;;;;;;5151552;27;19922;-58
2022/05/03 07:39:46;;;;;;;;;;;21.60;43.50;;;;;;5164776;27;19923;-59
2022/05/03 07:42:12;;;;;;;;;;;21.60;43.40;;;;;;5164559;27;19975;-58
2022/05/03 07:44:38;;;;;;;;;;;21.70;43.40;;;;;;5151506;27;20416;-59
2022/05/03 07:47:04;;;;;;;;;;;21.70;43.40;;;;;;5161840;27;19929;-59
2022/05/03 07:49:30;;;;;;;;;;;21.80;43.40;;;;;;5167872;27;20286;-60
2022/05/03 07:51:56;;;;;;;;;;;21.80;43.30;;;;;;5164278;27;20297;-56
2022/05/03 07:54:22;;;;;;;;;;;21.80;42.90;;;;;;5164144;27;20340;-58
2022/05/03 07:56:48;;;;;;;;;;;21.80;42.70;;;;;;5169808;27;19970;-57
2022/05/03 07:59:14;;;;;;;;;;;21.80;42.60;;;;;;5164365;27;19923;-59
2022/05/03 08:01:41;;;;;;;;;;;21.80;42.70;;;;;;5164446;27;20573;-57
2022/05/03 08:04:07;;;;;;;;;;;21.80;42.70;;;;;;5169658;27;19923;-58
2022/05/03 08:06:32;;;;;;;;;;;21.80;42.90;;;;;;5160713;27;20469;-58
2022/05/03 08:08:58;;;;;;;;;;;21.80;43.10;;;;;;5168596;27;20856;-58
2022/05/03 08:11:24;;;;;;;;;;;21.80;43.10;;;;;;5163667;27;20014;-58
2022/05/03 08:13:52;;;;;;;;;;;21.80;43.20;;;;;;5145077;27;19926;-57
2022/05/03 08:16:19;;;;;;;;;;;21.80;42.90;;;;;;5169596;27;19937;-56
2022/05/03 08:18:44;;;;;;;;;;;21.80;42.80;;;;;;5164037;27;19929;-58
2022/05/03 08:21:11;;;;;;;;;;;21.80;42.70;;;;;;5163712;27;19942;-58
2022/05/03 08:23:38;;;;;;;;;;;21.70;42.70;;;;;;5167042;27;20438;-58
2022/05/03 08:26:03;;;;;;;;;;;21.80;42.40;;;;;;5161622;27;19935;-58
2022/05/03 08:28:29;;;;;;;;;;;21.80;42.40;;;;;;5147443;27;20023;-57
2022/05/03 08:30:55;;;;;;;;;;;21.80;42.10;;;;;;5165810;27;19927;-59
2022/05/03 08:33:21;;;;;;;;;;;21.80;41.90;;;;;;5163877;27;19926;-56
2022/05/03 08:35:46;;;;;;;;;;;21.80;41.90;;;;;;5169300;27;19927;-58
2022/05/03 08:43:41;;;;;;;;;;;21.90;41.50;;;;;;5165893;27;20094;-56
2022/05/03 08:46:07;;;;;;;;;;;21.90;41.70;;;;;;5163177;27;19923;-58
2022/05/03 08:48:33;;;;;;;;;;;22.00;41.70;;;;;;5163448;27;20407;-59
2022/05/03 08:51:00;;;;;;;;;;;22.00;41.70;;;;;;5168882;27;19934;-58
2022/05/03 08:53:25;;;;;;;;;;;22.00;41.70;;;;;;5163394;27;19929;-59
2022/05/03 08:55:51;;;;;;;;;;;22.00;41.70;;;;;;5163464;27;20536;-57
2022/05/03 08:58:18;;;;;;;;;;;22.10;41.50;;;;;;5150574;27;19931;-58
2022/05/03 09:00:43;;;;;;;;;;;22.10;41.50;;;;;;5160529;27;19923;-57
2022/05/03 09:03:09;;;;;;;;;;;22.00;41.70;;;;;;5166939;27;20015;-58
2022/05/03 09:05:35;;;;;;;;;;;22.10;41.60;;;;;;5143303;27;20063;-58
2022/05/03 09:08:01;;;;;;;;;;;22.20;41.10;;;;;;5162881;27;19922;-58
2022/05/03 09:10:28;;;;;;;;;;;22.30;40.70;;;;;;5168811;27;19923;-59
2022/05/03 09:12:57;;;;;;;;;;;22.20;40.40;;;;;;5163347;27;19970;-59
2022/05/03 09:15:30;;;;;;;;;;;22.30;40.40;;;;;;5163206;27;19927;-58
2022/05/03 09:17:56;;;;;;;;;;;22.30;40.40;;;;;;5167717;27;19923;-58
2022/05/03 09:26:20;;;;;;;;;;;22.40;40.00;;;;;;5168311;27;19975;-57
2022/05/03 09:28:50;;;;;;;;;;;22.40;39.90;;;;;;5162739;27;20512;-59
2022/05/03 09:31:28;;;;;;;;;;;22.50;39.50;;;;;;5162789;27;20013;-59
2022/05/03 09:33:54;;;;;;;;;;;22.50;39.20;;;;;;5168386;27;19962;-58
2022/05/03 09:36:20;;;;;;;;;;;22.60;38.80;;;;;;5161852;27;19927;-59
2022/05/03 09:38:46;;;;;;;;;;;22.50;38.90;;;;;;5159431;27;20629;-57
2022/05/03 09:41:15;;;;;;;;;;;22.50;38.90;;;;;;5167365;27;19923;-57
2022/05/03 09:44:00;;;;;;;;;;;22.50;38.90;;;;;;5162256;27;20037;-59
2022/05/03 09:46:26;;;;;;;;;;;22.50;38.50;;;;;;5162687;27;19937;-59
2022/05/03 09:48:52;;;;;;;;;;;22.50;38.00;;;;;;5147780;27;19929;-58
2022/05/03 09:51:18;;;;;;;;;;;22.60;37.90;;;;;;5162770;27;19957;-59
2022/05/03 09:53:54;;;;;;;;;;;22.60;38.10;;;;;;5164342;27;19933;-58
2022/05/03 09:56:22;;;;;;;;;;;22.60;38.30;;;;;;5164542;27;19970;-57
2022/05/03 09:58:48;;;;;;;;;;;21.50;40.40;;;;;;5142985;27;19926;-57
2022/05/03 10:01:14;;;;;;;;;;;21.30;41.00;;;;;;5167494;27;19975;-57
2022/05/03 10:03:39;;;;;;;;;;;21.50;40.50;;;;;;5162308;27;19929;-58
2022/05/03 10:06:05;;;;;;;;;;;21.70;40.10;;;;;;5162513;27;19923;-59
2022/05/03 10:08:31;;;;;;;;;;;21.70;39.80;;;;;;5167897;27;19926;-57
2022/05/03 10:10:57;;;;;;;;;;;21.70;39.80;;;;;;5162442;27;19923;-58
2022/05/03 10:13:23;;;;;;;;;;;21.70;39.80;;;;;;5160936;27;20677;-57
2022/05/03 10:21:27;;;;;;;;;;;21.70;39.50;;;;;;5161929;27;19923;-58
2022/05/03 10:24:09;;;;;;;;;;;21.70;39.50;;;;;;5149182;27;19923;-57
2022/05/03 10:26:54;;;;;;;;;;;21.70;39.70;;;;;;5162246;27;19927;-58
2022/05/03 10:29:20;;;;;;;;;;;21.60;39.80;;;;;;5162350;27;20335;-58
2022/05/03 10:31:53;;;;;;;;;;;21.70;40.00;;;;;;5166005;27;20301;-57
2022/05/03 10:34:59;;;;;;;;;;;21.70;40.00;;;;;;5159564;27;20300;-57
2022/05/03 10:37:25;;;;;;;;;;;21.60;40.10;;;;;;5056576;28;20386;-58
2022/05/03 10:39:54;;;;;;;;;;;21.70;40.10;;;;;;5062261;28;19925;-59
2022/05/03 10:42:38;;;;;;;;;;;21.60;40.40;;;;;;5109163;27;19929;-57
2022/05/03 10:45:07;;;;;;;;;;;21.70;40.30;;;;;;5161968;27;19926;-58
2022/05/03 10:47:39;;;;;;;;;;;21.70;40.40;;;;;;5167445;27;19953;-59
2022/05/03 10:50:11;;;;;;;;;;;21.60;40.50;;;;;;5160647;27;20019;-58
2022/05/03 10:52:37;;;;;;;;;;;21.70;40.50;;;;;;5159236;27;20005;-58
2022/05/03 10:55:04;;;;;;;;;;;21.70;40.30;;;;;;5166871;27;19930;-59
2022/05/03 10:57:30;;;;;;;;;;;21.80;40.00;;;;;;5161898;27;19929;-59
2022/05/03 10:59:57;;;;;;;;;;;21.80;40.10;;;;;;5141058;27;22264;-57
2022/05/03 11:02:23;;;;;;;;;;;21.70;40.20;;;;;;5169976;27;19923;-59
2022/05/03 11:05:08;;;;;;;;;;;21.70;40.00;;;;;;5146814;27;19999;-59
2022/05/03 11:07:35;;;;;;;;;;;21.80;40.10;;;;;;5165463;27;20101;-59
2022/05/03 11:10:19;;;;;;;;;;;21.80;40.10;;;;;;5167260;27;19922;-58
2022/05/03 11:12:48;;;;;;;;;;;21.70;40.10;;;;;;5164427;27;19960;-58
2022/05/03 11:15:14;;;;;;;;;;;21.80;40.10;;;;;;5165255;27;19922;-58
2022/05/03 11:17:43;;;;;;;;;;;21.80;39.90;;;;;;5170700;27;20392;-59
2022/05/03 11:20:08;;;;;;;;;;;21.70;39.80;;;;;;5165117;27;19922;-59
2022/05/03 11:22:35;;;;;;;;;;;21.80;39.70;;;;;;5170615;27;19930;-59
2022/05/03 11:25:03;;;;;;;;;;;21.80;39.60;;;;;;5165284;27;20056;-59
2022/05/03 11:27:30;;;;;;;;;;;21.70;39.50;;;;;;5162471;27;19923;-57
2022/05/03 11:29:56;;;;;;;;;;;21.80;39.50;;;;;;5168328;27;20246;-58
2022/05/03 11:32:37;;;;;;;;;;;21.80;39.60;;;;;;5164579;27;19922;-58
2022/05/03 11:35:03;;;;;;;;;;;21.80;39.70;;;;;;5164856;27;19971;-58
2022/05/03 11:37:29;;;;;;;;;;;21.80;39.60;;;;;;5170473;27;19929;-59
2022/05/03 11:40:06;;;;;;;;;;;21.80;39.70;;;;;;5165077;27;19926;-57
2022/05/03 11:42:38;;;;;;;;;;;21.80;39.50;;;;;;5165128;27;19957;-59
2022/05/03 11:45:04;;;;;;;;;;;21.80;39.30;;;;;;5169073;27;19923;-58
2022/05/03 11:47:32;;;;;;;;;;;21.80;39.40;;;;;;5162085;27;19923;-56
2022/05/03 11:49:58;;;;;;;;;;;21.80;39.40;;;;;;5164435;27;19936;-56
2022/05/03 11:57:53;;;;;;;;;;;21.40;40.10;;;;;;5164804;27;20447;-59
2022/05/03 12:00:19;;;;;;;;;;;21.00;40.10;;;;;;5134290;27;19931;-58
2022/05/03 12:02:45;;;;;;;;;;;20.90;40.00;;;;;;5164696;27;20347;-59
2022/05/03 12:05:18;;;;;;;;;;;21.20;41.10;;;;;;5166027;27;19923;-57
2022/05/03 12:07:57;;;;;;;;;;;21.30;40.40;;;;;;5148180;27;19926;-57
2022/05/03 12:10:37;;;;;;;;;;;21.50;39.80;;;;;;5164360;27;19923;-57
2022/05/03 12:13:07;;;;;;;;;;;21.50;39.40;;;;;;5166633;27;20290;-57
2022/05/03 12:15:35;;;;;;;;;;;21.50;39.00;;;;;;5169612;27;19929;-58
2022/05/03 12:18:18;;;;;;;;;;;21.60;38.80;;;;;;5146205;27;20370;-55
2022/05/03 12:20:43;;;;;;;;;;;21.60;38.90;;;;;;5168565;27;19966;-57
2022/05/03 12:23:13;;;;;;;;;;;21.70;39.30;;;;;;5162963;27;20385;-57
2022/05/03 12:25:41;;;;;;;;;;;21.70;39.70;;;;;;5163147;27;19989;-56
2022/05/03 12:28:07;;;;;;;;;;;21.70;40.00;;;;;;5169305;27;19929;-54
2022/05/03 12:30:33;;;;;;;;;;;21.70;40.20;;;;;;5146158;27;20016;-54
2022/05/03 12:33:05;;;;;;;;;;;21.70;40.30;;;;;;5166417;27;19927;-58
2022/05/03 12:35:32;;;;;;;;;;;21.80;40.10;;;;;;5169486;27;20354;-56
2022/05/03 12:38:06;;;;;;;;;;;21.80;40.10;;;;;;5164439;27;20339;-57
2022/05/03 12:40:33;;;;;;;;;;;22.00;40.10;;;;;;5162205;27;20247;-55
2022/05/03 12:43:08;;;;;;;;;;;22.00;40.10;;;;;;5166701;27;19923;-53
2022/05/03 12:45:34;;;;;;;;;;;22.00;40.00;;;;;;5163526;27;19923;-58
2022/05/03 12:47:59;;;;;;;;;;;22.00;39.80;;;;;;5144859;27;19964;-50
2022/05/03 12:50:25;;;;;;;;;;;22.00;40.00;;;;;;5169256;27;19927;-57
2022/05/03 12:52:51;;;;;;;;;;;21.80;40.50;;;;;;5164550;27;20378;-55
2022/05/03 12:55:19;;;;;;;;;;;21.80;40.50;;;;;;5169424;27;19923;-54
2022/05/03 13:00:32;;;;;;;;;;;21.80;40.50;;;;;;5160935;27;19938;-53
2022/05/03 13:03:00;;;;;;;;;;;21.80;40.70;;;;;;5168265;27;19936;-55
2022/05/03 13:05:26;;;;;;;;;;;21.80;40.40;;;;;;5163890;27;19926;-54
2022/05/03 13:07:52;;;;;;;;;;;21.80;40.20;;;;;;5164201;27;19923;-54
2022/05/03 13:10:18;;;;;;;;;;;21.90;39.80;;;;;;5168969;27;19927;-52
2022/05/03 13:12:43;;;;;;;;;;;22.00;39.50;;;;;;5164291;27;19930;-52
2022/05/03 13:15:10;;;;;;;;;;;21.90;39.60;;;;;;5164784;27;19930;-52
2022/05/03 13:17:36;;;;;;;;;;;21.90;39.70;;;;;;5167087;27;19926;-53
2022/05/03 13:20:02;;;;;;;;;;;22.00;39.90;;;;;;5162483;27;20386;-52
2022/05/03 13:22:27;;;;;;;;;;;21.80;40.40;;;;;;5168240;27;20366;-52
2022/05/03 13:24:53;;;;;;;;;;;21.80;40.80;;;;;;5163526;27;19975;-53
2022/05/03 13:27:19;;;;;;;;;;;21.80;41.00;;;;;;5164256;27;19930;-54
2022/05/03 13:29:45;;;;;;;;;;;21.80;41.30;;;;;;5169071;27;20305;-53
2022/05/03 13:32:11;;;;;;;;;;;21.80;41.50;;;;;;5164306;27;19937;-51
2022/05/03 13:34:36;;;;;;;;;;;21.80;41.50;;;;;;5164155;27;20317;-51
2022/05/03 13:42:48;;;;;;;;;;;21.90;41.30;;;;;;5078638;28;19969;-52
2022/05/03 13:45:14;;;;;;;;;;;21.80;41.40;;;;;;5150528;27;20301;-50
2022/05/03 13:47:39;;;;;;;;;;;21.80;41.50;;;;;;5164092;27;19930;-52
2022/05/03 13:50:06;;;;;;;;;;;21.80;41.50;;;;;;5145572;27;19923;-53
2022/05/03 13:52:33;;;;;;;;;;;21.70;41.40;;;;;;5149868;27;19936;-52
2022/05/03 13:54:59;;;;;;;;;;;21.80;41.40;;;;;;5161394;27;19926;-51
2022/05/03 13:57:26;;;;;;;;;;;21.80;41.40;;;;;;5167172;27;19930;-51
2022/05/03 13:59:52;;;;;;;;;;;21.80;41.40;;;;;;5163832;27;19926;-50
2022/05/03 14:02:17;;;;;;;;;;;21.80;41.50;;;;;;5163708;27;19930;-51
2022/05/03 14:04:43;;;;;;;;;;;21.00;42.30;;;;;;5168534;27;19940;-49
2022/05/03 14:07:09;;;;;;;;;;;20.80;42.40;;;;;;5145078;27;19944;-51
2022/05/03 14:09:36;;;;;;;;;;;20.80;42.80;;;;;;5163924;27;20250;-50
2022/05/03 14:12:03;;;;;;;;;;;21.40;44.30;;;;;;5166722;27;19931;-58
2022/05/03 14:14:29;;;;;;;;;;;21.80;43.30;;;;;;5159454;27;19930;-57
2022/05/03 14:16:54;;;;;;;;;;;21.80;43.50;;;;;;5164133;27;19931;-57
2022/05/03 14:19:20;;;;;;;;;;;21.90;43.60;;;;;;5165444;27;20354;-59
2022/05/03 14:21:48;;;;;;;;;;;21.90;44.20;;;;;;5162075;27;19923;-56
2022/05/03 14:24:14;;;;;;;;;;;22.00;44.20;;;;;;5147517;27;19927;-57
2022/05/03 14:26:40;;;;;;;;;;;22.00;44.90;;;;;;5162245;27;20021;-56
2022/05/03 14:29:07;;;;;;;;;;;22.10;45.30;;;;;;5162340;27;19923;-58
2022/05/03 14:31:35;;;;;;;;;;;22.10;45.70;;;;;;5164595;27;19927;-58
2022/05/03 14:34:01;;;;;;;;;;;22.10;47.40;;;;;;5160389;27;20014;-58
2022/05/03 14:36:31;;;;;;;;;;;22.10;48.70;;;;;;5164791;27;19929;-58
2022/05/03 14:38:56;;;;;;;;;;;22.00;48.40;;;;;;5171338;27;19923;-58
2022/05/03 14:41:22;;;;;;;;;;;22.00;48.10;;;;;;5165781;27;20352;-57
2022/05/03 14:43:48;;;;;;;;;;;22.00;48.00;;;;;;5171293;27;19934;-57
2022/05/03 14:46:14;;;;;;;;;;;22.10;48.30;;;;;;5165716;27;20422;-58
2022/05/03 14:48:40;;;;;;;;;;;22.10;48.80;;;;;;5164708;27;19938;-58
2022/05/03 14:51:06;;;;;;;;;;;22.00;49.50;;;;;;5167618;27;20360;-58
2022/05/03 14:53:32;;;;;;;;;;;22.00;50.10;;;;;;5164730;27;19923;-58
2022/05/03 15:04:12;;;;;;;;;;;21.80;51.70;;;;;;5165563;27;19937;-57
2022/05/03 15:06:41;;;;;;;;;;;21.80;51.80;;;;;;5170693;27;19927;-59
2022/05/03 15:09:10;;;;;;;;;;;21.90;51.40;;;;;;5161581;27;19923;-57